Time;durP1;ratioP1;P1;durP2;ratioP2;P2;SDS_P1;SDS_P2;PMS_P1;PMS_P2;Temp;Humidity;BMP_temperature;BMP_pressure;BME280_temperature;BME280_humidity;BME280_pressure;Samples;Min_cycle;Max_cycle;Signal;HPM_P1;HPM_P2
2023/09/12 00:00:56;;;;;;;27.15;18.33;;;;;;;18.52;100.00;100089.09;5116582;28;20019;-80
2023/09/12 00:03:23;;;;;;;22.92;17.27;;;;;;;18.47;100.00;100092.13;5115038;28;20068;-81
2023/09/12 00:05:56;;;;;;;24.70;18.55;;;;;;;18.42;100.00;100090.88;5116175;28;20019;-79
2023/09/12 00:08:23;;;;;;;28.10;19.42;;;;;;;18.38;100.00;100084.63;5116410;28;20059;-80
2023/09/12 00:11:10;;;;;;;24.05;16.98;;;;;;;18.36;100.00;100089.41;5115983;28;20099;-80
2023/09/12 00:13:35;;;;;;;28.67;18.05;;;;;;;18.33;100.00;100087.63;5114516;28;20572;-80
2023/09/12 00:16:02;;;;;;;24.50;16.88;;;;;;;18.23;100.00;100078.53;5114460;28;20059;-80
2023/09/12 00:18:28;;;;;;;25.15;18.75;;;;;;;18.27;100.00;100094.28;5114160;28;20074;-80
2023/09/12 00:20:56;;;;;;;23.67;17.23;;;;;;;18.23;100.00;100085.13;5114361;28;20019;-80
2023/09/12 00:23:23;;;;;;;25.55;17.52;;;;;;;18.17;100.00;100090.25;5097300;28;20016;-79
2023/09/12 00:25:52;;;;;;;26.65;17.50;;;;;;;18.17;100.00;100086.56;5113952;28;20020;-80
2023/09/12 00:28:19;;;;;;;26.95;17.95;;;;;;;18.11;100.00;100089.53;5115474;28;20031;-80
2023/09/12 00:30:46;;;;;;;26.85;17.90;;;;;;;18.09;100.00;100086.41;5114116;28;20038;-79
2023/09/12 00:33:12;;;;;;;29.17;17.90;;;;;;;18.07;100.00;100083.31;5113963;28;20122;-79
2023/09/12 00:35:38;;;;;;;30.38;17.83;;;;;;;18.05;100.00;100088.84;5115518;28;20035;-78
2023/09/12 00:38:06;;;;;;;25.20;17.70;;;;;;;18.02;100.00;100083.41;5114773;28;20031;-79
2023/09/12 00:40:32;;;;;;;26.58;17.35;;;;;;;18.01;100.00;100091.28;5114250;28;20023;-79
2023/09/12 00:42:59;;;;;;;22.10;17.40;;;;;;;17.96;100.00;100094.25;5077913;28;20053;-79
2023/09/12 00:45:26;;;;;;;24.85;16.88;;;;;;;17.97;100.00;100093.72;5113673;28;20027;-79
2023/09/12 00:47:53;;;;;;;22.08;16.58;;;;;;;17.95;100.00;100095.59;5111970;28;20122;-79
2023/09/12 00:50:21;;;;;;;23.33;16.92;;;;;;;17.89;100.00;100094.88;5112734;28;20045;-79
2023/09/12 00:52:47;;;;;;;48.65;18.40;;;;;;;17.83;100.00;100089.22;5113508;28;20035;-78
2023/09/12 00:55:13;;;;;;;27.88;16.52;;;;;;;17.71;100.00;100082.81;5094872;28;20019;-80
2023/09/12 00:57:39;;;;;;;25.15;16.52;;;;;;;17.83;100.00;100103.69;5113543;28;20126;-78
2023/09/12 01:00:19;;;;;;;38.00;16.63;;;;;;;17.83;100.00;100101.53;5095138;28;20409;-80
2023/09/12 01:02:53;;;;;;;28.08;17.30;;;;;;;17.65;100.00;100085.00;5112315;28;20020;-78
2023/09/12 01:05:19;;;;;;;25.48;17.35;;;;;;;17.78;100.00;100099.50;5112105;28;20476;-79
2023/09/12 01:07:44;;;;;;;31.33;17.38;;;;;;;17.79;100.00;100097.41;5096360;28;20068;-77
2023/09/12 01:10:13;;;;;;;24.27;16.20;;;;;;;17.74;100.00;100089.59;5112139;28;20346;-78
2023/09/12 01:12:45;;;;;;;24.65;18.30;;;;;;;17.70;100.00;100083.34;5111927;28;20035;-80
2023/09/12 01:15:13;;;;;;;26.90;17.98;;;;;;;17.72;100.00;100093.06;5112316;28;20035;-79
2023/09/12 01:17:43;;;;;;;25.70;18.58;;;;;;;17.74;100.00;100096.16;5113435;28;20027;-79
2023/09/12 01:20:24;;;;;;;32.83;19.23;;;;;;;17.68;100.00;100092.59;5113249;28;20034;-79
2023/09/12 01:23:28;;;;;;;24.15;18.90;;;;;;;17.63;100.00;100098.47;5112427;28;20122;-78
2023/09/12 01:26:02;;;;;;;27.50;18.70;;;;;;;17.60;100.00;100102.41;5114411;28;20031;-78
2023/09/12 01:28:34;;;;;;;24.85;18.02;;;;;;;17.59;100.00;100098.75;5113381;28;20038;-79
2023/09/12 01:31:02;;;;;;;22.08;16.23;;;;;;;17.56;100.00;100090.41;5096742;28;20046;-79
2023/09/12 01:33:29;;;;;;;24.13;17.92;;;;;;;17.60;100.00;100106.09;5113320;28;20024;-79
2023/09/12 01:35:56;;;;;;;28.13;18.38;;;;;;;17.53;100.00;100103.84;5096086;28;20472;-78
2023/09/12 01:38:21;;;;;;;23.23;17.65;;;;;;;17.55;100.00;100103.28;5115969;28;20098;-79
2023/09/12 01:40:50;;;;;;;29.25;18.30;;;;;;;17.55;100.00;100100.41;5101621;28;20111;-79
2023/09/12 01:43:19;;;;;;;21.35;16.98;;;;;;;17.42;100.00;100087.41;5101227;28;20500;-80
2023/09/12 01:45:56;;;;;;;24.67;17.00;;;;;;;17.53;100.00;100103.84;5117929;28;20019;-81
2023/09/12 01:48:33;;;;;;;25.52;16.70;;;;;;;17.51;100.00;100109.38;5117739;28;20062;-79
2023/09/12 01:51:00;;;;;;;24.13;17.30;;;;;;;17.47;100.00;100111.81;5118659;28;20020;-80
2023/09/12 01:53:27;;;;;;;28.80;17.88;;;;;;;17.36;100.00;100101.16;5100324;28;20024;-80
2023/09/12 01:55:53;;;;;;;22.73;17.27;;;;;;;17.39;100.00;100111.59;5116962;28;20019;-80
2023/09/12 01:58:20;;;;;;;23.92;16.90;;;;;;;17.33;100.00;100104.34;5117088;28;20023;-80
2023/09/12 02:00:46;;;;;;;23.83;17.50;;;;;;;17.23;100.00;100097.41;5083058;28;20034;-80
2023/09/12 02:03:13;;;;;;;24.05;17.38;;;;;;;17.36;100.00;100109.03;5118326;28;20012;-81
2023/09/12 02:05:39;;;;;;;23.77;17.20;;;;;;;17.33;100.00;100108.03;5118202;28;20024;-79
2023/09/12 02:08:06;;;;;;;26.17;17.60;;;;;;;17.27;100.00;100113.09;5116811;28;20103;-79
2023/09/12 02:10:33;;;;;;;22.27;18.35;;;;;;;17.21;100.00;100105.81;5118310;28;20141;-79
2023/09/12 02:12:59;;;;;;;20.98;16.77;;;;;;;17.25;100.00;100117.84;5118249;28;20356;-79
2023/09/12 02:15:25;;;;;;;25.20;17.60;;;;;;;17.25;100.00;100109.16;5117938;28;20027;-80
2023/09/12 02:17:52;;;;;;;28.65;18.38;;;;;;;17.27;100.00;100110.19;5116777;28;20034;-80
2023/09/12 02:20:19;;;;;;;22.55;17.17;;;;;;;17.22;100.00;100101.59;5099513;28;20495;-78
2023/09/12 02:22:45;;;;;;;30.92;18.23;;;;;;;17.25;100.00;100107.06;5116440;28;20078;-79
2023/09/12 02:25:11;;;;;;;29.38;17.95;;;;;;;17.26;100.00;100108.63;5133067;27;20092;-78
2023/09/12 02:27:45;;;;;;;21.38;16.90;;;;;;;17.23;100.00;100106.84;5116192;28;20031;-79
2023/09/12 02:30:10;;;;;;;23.55;17.80;;;;;;;17.15;100.00;100097.22;5116581;28;20028;-78
2023/09/12 02:32:36;;;;;;;24.33;18.05;;;;;;;17.19;100.00;100108.47;5099224;28;20047;-79
2023/09/12 02:35:02;;;;;;;26.52;18.08;;;;;;;17.16;100.00;100113.22;5116932;28;20456;-78
2023/09/12 02:37:27;;;;;;;25.55;17.95;;;;;;;17.10;100.00;100105.94;5117664;28;20377;-78
2023/09/12 02:39:54;;;;;;;27.67;17.13;;;;;;;17.10;100.00;100108.84;5116192;28;20028;-80
2023/09/12 02:42:20;;;;;;;26.88;18.75;;;;;;;17.05;100.00;100101.81;5115817;28;20035;-80
2023/09/12 02:44:47;;;;;;;29.70;18.63;;;;;;;16.97;100.00;100100.84;5117587;28;20049;-79
2023/09/12 02:47:13;;;;;;;35.47;18.50;;;;;;;16.98;100.00;100096.66;5116263;28;20076;-79
2023/09/12 02:49:39;;;;;;;26.80;18.52;;;;;;;16.98;100.00;100109.00;5098370;28;20027;-79
2023/09/12 02:52:05;;;;;;;31.52;18.88;;;;;;;16.98;100.00;100106.09;5116113;28;20071;-80
2023/09/12 02:54:31;;;;;;;27.77;18.17;;;;;;;16.95;100.00;100120.81;5098799;28;20096;-80
2023/09/12 02:56:58;;;;;;;26.65;18.33;;;;;;;16.90;100.00;100119.56;5116126;28;20464;-79
2023/09/12 02:59:25;;;;;;;27.42;19.27;;;;;;;16.89;100.00;100120.91;5117509;28;20055;-80
2023/09/12 03:01:51;;;;;;;28.48;18.65;;;;;;;16.88;100.00;100121.44;5116982;28;20492;-80
2023/09/12 03:04:18;;;;;;;25.92;20.05;;;;;;;16.84;100.00;100115.19;5117116;28;20039;-80
2023/09/12 03:06:43;;;;;;;24.90;18.70;;;;;;;16.79;100.00;100113.94;5116860;28;20451;-81
2023/09/12 03:09:11;;;;;;;28.77;19.52;;;;;;;16.86;100.00;100124.06;5117033;28;20097;-80
2023/09/12 03:11:38;;;;;;;29.08;18.67;;;;;;;16.85;100.00;100123.28;5116977;28;20428;-79
2023/09/12 03:14:03;;;;;;;26.50;19.02;;;;;;;16.86;100.00;100127.75;5116460;28;20019;-79
2023/09/12 03:16:28;;;;;;;26.20;18.27;;;;;;;16.87;100.00;100122.75;5116709;28;20020;-80
2023/09/12 03:18:56;;;;;;;27.42;19.50;;;;;;;16.72;100.00;100091.44;5116840;28;20031;-80
2023/09/12 03:21:22;;;;;;;26.00;19.25;;;;;;;16.88;100.00;100112.78;5117335;28;20355;-79
2023/09/12 03:23:48;;;;;;;34.88;19.88;;;;;;;16.80;100.00;100106.03;5116739;28;20068;-79
2023/09/12 03:26:14;;;;;;;30.15;19.08;;;;;;;16.69;100.00;100092.53;5115436;28;20476;-80
2023/09/12 03:28:41;;;;;;;26.98;19.45;;;;;;;16.80;100.00;100121.25;5116874;28;20031;-80
2023/09/12 03:31:12;;;;;;;26.90;20.13;;;;;;;16.77;100.00;100131.00;5116737;28;20072;-80
2023/09/12 03:33:39;;;;;;;28.38;19.70;;;;;;;16.76;100.00;100119.97;5098369;28;20038;-80
2023/09/12 03:36:06;;;;;;;28.45;20.08;;;;;;;16.76;100.00;100126.53;5081405;28;20043;-80
2023/09/12 03:38:33;;;;;;;29.15;20.08;;;;;;;16.77;100.00;100119.44;5116727;28;20154;-81
2023/09/12 03:40:59;;;;;;;30.15;19.58;;;;;;;16.78;100.00;100118.13;5098308;28;20115;-78
2023/09/12 03:43:26;;;;;;;30.05;20.13;;;;;;;16.78;100.00;100121.03;5115210;28;20105;-80
2023/09/12 03:45:51;;;;;;;29.63;18.52;;;;;;;16.69;100.00;100100.41;5116048;28;20020;-79
2023/09/12 03:48:17;;;;;;;24.60;17.20;;;;;;;16.74;100.00;100114.00;5116275;28;20522;-80
2023/09/12 03:50:52;;;;;;;25.25;17.80;;;;;;;16.75;100.00;100118.41;5116118;28;20023;-80
2023/09/12 03:53:17;;;;;;;27.85;18.65;;;;;;;16.71;100.00;100117.94;5114974;28;20034;-79
2023/09/12 03:55:44;;;;;;;27.45;19.13;;;;;;;16.69;100.00;100118.50;5116113;28;20430;-79
2023/09/12 03:58:09;;;;;;;26.70;18.15;;;;;;;16.64;100.00;100113.56;5114798;28;20030;-78
2023/09/12 04:00:36;;;;;;;27.23;19.70;;;;;;;16.63;100.00;100111.22;5116205;28;20106;-78
2023/09/12 04:03:02;;;;;;;29.92;19.00;;;;;;;16.60;100.00;100109.41;5116038;28;20020;-80
2023/09/12 04:05:28;;;;;;;31.35;19.65;;;;;;;16.57;100.00;100107.59;5115983;28;20024;-79
2023/09/12 04:07:54;;;;;;;26.30;19.45;;;;;;;16.51;100.00;100108.41;5115963;28;20036;-80
2023/09/12 04:10:20;;;;;;;28.77;18.40;;;;;;;16.45;100.00;100112.69;5114771;28;20027;-80
2023/09/12 04:12:45;;;;;;;27.98;18.85;;;;;;;16.36;100.00;100105.13;5115688;28;20023;-79
2023/09/12 04:15:12;;;;;;;32.08;19.08;;;;;;;16.34;100.00;100116.44;5114785;28;20104;-79
2023/09/12 04:17:38;;;;;;;28.38;18.23;;;;;;;16.26;100.00;100111.78;5115723;28;20137;-80
2023/09/12 04:20:04;;;;;;;29.25;18.67;;;;;;;16.25;100.00;100119.66;5115334;28;20059;-78
2023/09/12 04:22:33;;;;;;;27.55;19.20;;;;;;;16.20;100.00;100129.16;5115122;28;20081;-80
2023/09/12 04:24:59;;;;;;;27.95;20.45;;;;;;;16.13;100.00;100132.59;5114425;28;20056;-80
2023/09/12 04:27:24;;;;;;;28.77;19.08;;;;;;;16.10;100.00;100131.59;5113842;28;20062;-77
2023/09/12 04:29:49;;;;;;;29.52;19.92;;;;;;;16.10;100.00;100137.34;5115117;28;20038;-80
2023/09/12 04:32:16;;;;;;;29.65;19.92;;;;;;;16.10;100.00;100148.09;5114894;28;20038;-81
2023/09/12 04:34:43;;;;;;;35.70;20.73;;;;;;;16.07;100.00;100135.53;5114432;28;20541;-80
2023/09/12 04:37:09;;;;;;;31.55;20.40;;;;;;;16.15;100.00;100135.75;5114060;28;20027;-80
2023/09/12 04:39:36;;;;;;;29.13;19.95;;;;;;;16.13;100.00;100133.38;5115267;28;20028;-80
2023/09/12 04:42:04;;;;;;;26.95;19.35;;;;;;;16.20;100.00;100131.25;5115007;28;20031;-79
2023/09/12 04:44:36;;;;;;;27.13;19.35;;;;;;;16.23;100.00;100130.16;5114647;28;20075;-78
2023/09/12 04:47:03;;;;;;;24.90;17.80;;;;;;;16.29;100.00;100139.56;5113929;28;20027;-80
2023/09/12 04:49:34;;;;;;;25.40;18.70;;;;;;;16.32;100.00;100132.72;5115073;28;20058;-77
2023/09/12 04:52:02;;;;;;;28.83;18.27;;;;;;;16.32;100.00;100135.59;5114610;28;20072;-75
2023/09/12 04:54:28;;;;;;;27.27;19.15;;;;;;;16.34;100.00;100127.19;5114539;28;20023;-74
2023/09/12 04:56:56;;;;;;;32.80;18.73;;;;;;;16.39;100.00;100123.47;5114458;28;20038;-78
2023/09/12 04:59:23;;;;;;;29.52;18.20;;;;;;;16.48;100.00;100132.56;5114534;28;20041;-80
2023/09/12 05:01:50;;;;;;;25.75;17.60;;;;;;;16.46;100.00;100120.00;5096839;28;20035;-78
2023/09/12 05:04:17;;;;;;;24.73;18.75;;;;;;;16.56;100.00;100129.88;5096824;28;20033;-78
2023/09/12 05:06:43;;;;;;;31.63;23.13;;;;;;;16.53;100.00;100128.88;5113867;28;20020;-76
2023/09/12 05:09:10;;;;;;;29.27;18.40;;;;;;;16.59;100.00;100131.72;5114457;28;20450;-79
2023/09/12 05:11:37;;;;;;;29.67;20.08;;;;;;;16.49;100.00;100116.03;5114400;27;20344;-81
2023/09/12 05:14:04;;;;;;;26.70;18.77;;;;;;;16.57;100.00;100125.69;5114787;28;20077;-85
2023/09/12 05:16:31;;;;;;;28.50;19.00;;;;;;;16.78;100.00;100131.78;5114837;28;20027;-82
2023/09/12 05:18:57;;;;;;;26.92;20.15;;;;;;;16.72;100.00;100123.19;5113003;28;20084;-84
2023/09/12 05:21:36;;;;;;;28.73;20.42;;;;;;;16.89;100.00;100148.97;5112408;28;20032;-82
2023/09/12 05:24:02;;;;;;;26.60;18.60;;;;;;;16.93;100.00;100158.13;5114363;28;20034;-81
2023/09/12 05:26:28;;;;;;;33.40;20.30;;;;;;;16.92;100.00;100137.13;5096122;28;20031;-82
2023/09/12 05:28:54;;;;;;;24.92;18.65;;;;;;;17.06;100.00;100140.13;5114361;28;20069;-81
2023/09/12 05:31:20;;;;;;;32.30;19.25;;;;;;;17.23;100.00;100147.28;5113895;28;20043;-82
2023/09/12 05:33:46;;;;;;;27.90;19.42;;;;;;;17.29;100.00;100135.66;5114295;28;20023;-82
2023/09/12 05:36:12;;;;;;;29.75;18.65;;;;;;;17.44;100.00;100133.09;5112937;28;20061;-81
2023/09/12 05:38:40;;;;;;;25.98;18.25;;;;;;;17.49;100.00;100117.03;5114148;28;20032;-81
2023/09/12 05:41:07;;;;;;;22.35;16.52;;;;;;;17.71;100.00;100134.06;5114081;28;20461;-76
2023/09/12 05:43:34;;;;;;;29.52;19.02;;;;;;;17.79;100.00;100130.00;5113642;28;20054;-77
2023/09/12 05:46:02;;;;;;;28.25;18.33;;;;;;;17.84;100.00;100137.00;5113587;28;20024;-77
2023/09/12 05:48:52;;;;;;;25.60;18.35;;;;;;;17.95;100.00;100130.28;5112922;28;20388;-77
2023/09/12 05:51:21;;;;;;;27.98;18.80;;;;;;;18.00;100.00;100129.41;5113322;28;20024;-76
2023/09/12 05:53:46;;;;;;;34.30;17.88;;;;;;;18.05;100.00;100129.34;5113414;28;20464;-76
2023/09/12 05:56:12;;;;;;;31.88;18.75;;;;;;;18.10;100.00;100125.56;5113161;28;20034;-77
2023/09/12 05:58:46;;;;;;;28.40;17.83;;;;;;;18.18;100.00;100132.28;5112676;28;20157;-77
2023/09/12 06:01:14;;;;;;;24.95;17.35;;;;;;;18.25;100.00;100130.84;5112723;28;20024;-77
2023/09/12 06:03:58;;;;;;;28.13;18.70;;;;;;;18.35;100.00;100125.47;5112408;28;20019;-76
2023/09/12 06:06:30;;;;;;;27.67;16.83;;;;;;;18.44;100.00;100128.72;5112881;28;20123;-77
2023/09/12 06:08:55;;;;;;;41.47;16.88;;;;;;;18.51;100.00;100128.06;5112821;28;20163;-76
2023/09/12 06:11:22;;;;;;;21.20;14.82;;;;;;;18.73;100.00;100126.09;5112530;28;20488;-76
2023/09/12 06:13:48;;;;;;;24.45;14.48;;;;;;;19.31;100.00;100134.75;5113505;28;20042;-76
2023/09/12 06:16:14;;;;;;;24.92;14.13;;;;;;;20.15;100.00;100124.97;5113848;28;20110;-75
2023/09/12 06:18:39;;;;;;;21.08;12.95;;;;;;;21.30;100.00;100125.28;5112794;28;20137;-76
2023/09/12 06:21:08;;;;;;;23.45;13.60;;;;;;;22.49;100.00;100107.28;5113039;28;20487;-74
2023/09/12 06:23:34;;;;;;;19.98;13.13;;;;;;;23.68;100.00;100103.19;5113098;28;20428;-75
2023/09/12 06:26:00;;;;;;;20.30;13.30;;;;;;;24.64;100.00;100087.03;5098160;28;20035;-76
2023/09/12 06:28:27;;;;;;;17.88;14.07;;;;;;;25.46;100.00;100075.06;5117040;28;20097;-75
2023/09/12 06:31:02;;;;;;;21.23;13.30;;;;;;;26.32;100.00;100074.84;5116869;28;20465;-76
2023/09/12 06:33:28;;;;;;;24.58;13.88;;;;;;;27.07;100.00;100055.16;5116845;28;20027;-75
2023/09/12 06:35:54;;;;;;;20.45;12.35;;;;;;;27.70;100.00;100059.22;5098698;28;20035;-75
2023/09/12 06:38:21;;;;;;;19.13;11.45;;;;;;;28.48;100.00;100061.31;5115795;28;20110;-75
2023/09/12 06:40:47;;;;;;;26.38;14.02;;;;;;;29.26;100.00;100065.34;5115728;28;20031;-75
2023/09/12 06:43:12;;;;;;;20.48;12.55;;;;;;;29.92;100.00;100059.47;5116601;28;20092;-77
2023/09/12 06:45:38;;;;;;;17.30;11.73;;;;;;;30.52;100.00;100053.78;5116725;28;20034;-76
2023/09/12 06:48:04;;;;;;;14.43;11.48;;;;;;;31.12;100.00;100059.00;5117298;27;20042;-76
2023/09/12 06:50:31;;;;;;;16.75;11.05;;;;;;;31.39;100.00;100059.22;5116785;27;20043;-76
2023/09/12 06:52:56;;;;;;;13.88;11.57;;;;;;;31.65;99.25;100063.72;5132321;27;20020;-75
2023/09/12 06:55:22;;;;;;;23.08;11.77;;;;;;;31.85;96.91;100045.66;5115052;28;20085;-76
2023/09/12 06:57:47;;;;;;;19.95;10.73;;;;;;;32.21;98.95;100038.88;5116748;28;20027;-77
2023/09/12 07:00:14;;;;;;;22.90;10.75;;;;;;;32.60;94.63;100062.50;5115256;28;20027;-76
2023/09/12 07:02:40;;;;;;;13.85;10.57;;;;;;;32.84;91.99;100054.19;5115734;28;20032;-77
2023/09/12 07:05:06;;;;;;;15.85;11.38;;;;;;;33.12;86.32;100063.81;5115130;28;20057;-76
2023/09/12 07:07:32;;;;;;;18.52;10.57;;;;;;;32.97;87.00;100060.13;5116453;28;20056;-77
2023/09/12 07:09:59;;;;;;;17.75;11.45;;;;;;;33.37;88.71;100070.41;5116158;28;20034;-76
2023/09/12 07:12:25;;;;;;;15.20;11.50;;;;;;;33.75;84.23;100062.72;5115175;28;20031;-77
2023/09/12 07:14:52;;;;;;;19.55;11.35;;;;;;;33.80;78.04;100070.38;5097968;28;20112;-77
2023/09/12 07:17:17;;;;;;;16.23;10.80;;;;;;;34.01;84.94;100059.53;5116047;28;20027;-77
2023/09/12 07:19:43;;;;;;;16.67;11.60;;;;;;;34.40;81.42;100062.94;5115880;28;20164;-78
2023/09/12 07:22:09;;;;;;;13.93;11.27;;;;;;;34.72;81.73;100057.75;5115099;28;20377;-76
2023/09/12 07:24:34;;;;;;;18.33;11.18;;;;;;;35.15;80.65;100060.50;5116439;28;20027;-77
2023/09/12 07:27:00;;;;;;;15.60;11.35;;;;;;;35.60;77.67;100057.25;5115782;28;20054;-76
2023/09/12 07:29:26;;;;;;;13.00;11.20;;;;;;;35.90;74.22;100057.75;5115995;28;20032;-76
2023/09/12 07:31:54;;;;;;;20.08;12.55;;;;;;;36.09;70.01;100060.06;5115270;28;20043;-75
2023/09/12 07:34:24;;;;;;;24.63;12.23;;;;;;;36.22;68.52;100055.38;5117088;28;20027;-77
2023/09/12 07:36:51;;;;;;;13.02;11.35;;;;;;;36.39;69.93;100057.53;5118999;28;20110;-77
2023/09/12 07:39:17;;;;;;;17.95;11.82;;;;;;;36.47;67.42;100057.91;5118393;28;20046;-78
2023/09/12 07:41:43;;;;;;;14.20;12.30;;;;;;;36.25;66.51;100051.03;5114673;28;20028;-76
2023/09/12 07:44:11;;;;;;;15.80;12.05;;;;;;;36.22;67.73;100058.34;5116641;28;20051;-77
2023/09/12 07:46:37;;;;;;;14.90;10.98;;;;;;;36.35;62.84;100061.13;5116590;28;20035;-76
2023/09/12 07:49:03;;;;;;;13.35;11.07;;;;;;;36.17;66.52;100059.63;5116083;28;20039;-76
2023/09/12 07:51:29;;;;;;;12.05;10.57;;;;;;;36.32;67.82;100052.81;5118298;28;20039;-76
2023/09/12 07:53:54;;;;;;;14.93;10.13;;;;;;;36.47;63.92;100051.16;5118040;28;20084;-78
2023/09/12 07:56:20;;;;;;;17.30;10.60;;;;;;;36.48;64.88;100047.50;5117344;28;20050;-76
2023/09/12 07:58:45;;;;;;;15.80;10.00;;;;;;;36.38;61.36;100038.16;5115370;28;20023;-77
2023/09/12 08:01:10;;;;;;;14.75;10.05;;;;;;;36.26;63.33;100041.41;5113897;28;20035;-78
2023/09/12 08:03:38;;;;;;;14.90;9.27;;;;;;;36.16;64.88;100031.31;5115361;28;20102;-77
2023/09/12 08:06:04;;;;;;;11.05;9.18;;;;;;;36.24;64.96;100043.56;5115317;28;20056;-78
2023/09/12 08:08:30;;;;;;;13.23;8.65;;;;;;;36.16;64.36;100037.25;5115724;28;20031;-77
2023/09/12 08:10:57;;;;;;;16.73;8.80;;;;;;;36.30;66.36;100035.63;5114979;28;20027;-77
2023/09/12 08:13:25;;;;;;;11.90;8.50;;;;;;;36.49;63.84;100042.28;5113843;28;20056;-77
2023/09/12 08:15:52;;;;;;;12.43;9.40;;;;;;;36.55;64.66;100055.22;5117105;28;20094;-75
2023/09/12 08:18:17;;;;;;;11.07;9.32;;;;;;;36.69;64.17;100046.06;5117542;28;20028;-76
2023/09/12 08:20:43;;;;;;;15.50;9.07;;;;;;;36.76;60.08;100036.66;5115889;28;20030;-80
2023/09/12 08:23:09;;;;;;;14.60;8.23;;;;;;;36.76;60.10;100035.91;5115851;28;20093;-77
2023/09/12 08:25:36;;;;;;;11.55;8.85;;;;;;;36.54;60.09;100044.75;5116520;28;20440;-77
2023/09/12 08:28:02;;;;;;;22.13;9.38;;;;;;;36.43;62.03;100046.56;5116399;28;20027;-77
2023/09/12 08:30:29;;;;;;;10.70;8.30;;;;;;;36.42;62.58;100045.03;5115612;28;20389;-76
2023/09/12 08:32:55;;;;;;;17.10;9.60;;;;;;;36.51;63.90;100046.13;5113417;28;20495;-76
2023/09/12 08:35:21;;;;;;;11.23;8.63;;;;;;;36.63;60.76;100033.94;5113672;28;20130;-76
2023/09/12 08:37:47;;;;;;;9.48;8.52;;;;;;;36.69;58.50;100049.78;5113446;28;20020;-75
2023/09/12 08:40:13;;;;;;;10.27;8.63;;;;;;;36.57;61.50;100046.38;5114758;28;20099;-76
2023/09/12 08:42:43;;;;;;;13.55;8.70;;;;;;;36.51;60.38;100040.19;5113292;28;20456;-77
2023/09/12 08:45:16;;;;;;;9.15;7.75;;;;;;;36.47;61.25;100039.25;5114663;28;20019;-77
2023/09/12 08:47:46;;;;;;;11.38;8.80;;;;;;;36.16;58.79;100035.06;5112699;28;20031;-76
2023/09/12 08:50:18;;;;;;;11.53;9.20;;;;;;;35.89;60.60;100045.09;5114673;28;20023;-75
2023/09/12 08:52:45;;;;;;;11.85;8.90;;;;;;;35.81;65.33;100047.75;5113842;28;20399;-76
2023/09/12 08:55:11;;;;;;;27.30;11.27;;;;;;;35.76;65.48;100034.16;5113605;28;20452;-77
2023/09/12 08:57:48;;;;;;;13.63;9.52;;;;;;;35.87;66.38;100044.25;5114324;28;20030;-77
2023/09/12 09:00:14;;;;;;;14.73;9.20;;;;;;;35.91;66.11;100047.41;5114428;28;20034;-78
2023/09/12 09:02:40;;;;;;;9.00;8.10;;;;;;;35.94;65.76;100049.03;5113750;28;20023;-76
2023/09/12 09:05:07;;;;;;;17.88;10.25;;;;;;;35.85;65.01;100053.84;5113836;28;20030;-77
2023/09/12 09:07:35;;;;;;;21.98;9.45;;;;;;;35.79;68.14;100056.59;5096205;28;20100;-78
2023/09/12 09:10:04;;;;;;;9.85;8.65;;;;;;;35.73;70.65;100034.75;5113025;28;20468;-77
2023/09/12 09:12:30;;;;;;;13.35;8.98;;;;;;;35.91;72.73;100048.16;5114099;28;20495;-77
2023/09/12 09:14:55;;;;;;;10.13;9.10;;;;;;;35.98;68.69;100052.94;5113805;28;20020;-78
2023/09/12 09:17:21;;;;;;;10.05;9.00;;;;;;;35.96;68.43;100052.06;5113950;28;20032;-78
2023/09/12 09:19:47;;;;;;;12.32;8.73;;;;;;;35.73;68.77;100052.59;5112782;28;20096;-77
2023/09/12 09:22:13;;;;;;;13.07;8.60;;;;;;;35.17;69.31;100055.41;5112903;28;20031;-76
2023/09/12 09:24:38;;;;;;;16.55;9.00;;;;;;;34.89;73.00;100059.28;5113099;28;20015;-77
2023/09/12 09:27:04;;;;;;;12.10;9.52;;;;;;;34.73;77.59;100060.06;5112638;28;20034;-77
2023/09/12 09:29:31;;;;;;;11.50;9.00;;;;;;;34.57;72.45;100047.41;5114162;28;20464;-78
2023/09/12 09:31:59;;;;;;;14.10;8.82;;;;;;;34.55;75.26;100052.50;5114343;28;20061;-79
2023/09/12 09:34:29;;;;;;;10.50;8.50;;;;;;;34.63;74.92;100047.72;5113792;28;20102;-78
2023/09/12 09:36:59;;;;;;;10.80;9.13;;;;;;;34.66;73.69;100040.44;5113034;28;20030;-79
2023/09/12 09:39:25;;;;;;;13.70;8.60;;;;;;;34.74;73.77;100048.97;5112995;28;20111;-78
2023/09/12 09:41:56;;;;;;;10.48;8.18;;;;;;;34.81;74.05;100044.06;5113288;28;20027;-80
2023/09/12 09:44:25;;;;;;;20.35;10.27;;;;;;;34.78;72.80;100041.00;5114051;28;20050;-79
2023/09/12 09:46:56;;;;;;;12.68;9.18;;;;;;;34.64;76.88;100040.34;5113119;28;20066;-78
2023/09/12 09:49:22;;;;;;;12.15;8.50;;;;;;;34.56;75.90;100039.94;5114017;28;20027;-78
2023/09/12 09:51:48;;;;;;;11.88;8.70;;;;;;;34.44;74.38;100044.53;5112634;28;20028;-79
2023/09/12 09:54:14;;;;;;;12.70;9.20;;;;;;;34.30;73.38;100038.72;5113839;28;20027;-78
2023/09/12 09:56:50;;;;;;;12.10;9.18;;;;;;;34.20;76.94;100036.03;5095741;28;20028;-79
2023/09/12 09:59:16;;;;;;;15.20;8.30;;;;;;;34.09;79.00;100036.19;5114751;28;20384;-78
2023/09/12 10:01:43;;;;;;;10.27;8.20;;;;;;;34.09;81.45;100039.13;5118146;27;20035;-78
2023/09/12 10:04:09;;;;;;;10.73;8.73;;;;;;;34.02;76.29;100032.13;5116898;28;20016;-77
2023/09/12 10:06:36;;;;;;;11.50;8.93;;;;;;;33.93;78.20;100036.91;5117976;28;20107;-78
2023/09/12 10:09:06;;;;;;;9.82;8.82;;;;;;;33.69;81.03;100026.06;5099850;28;20039;-77
2023/09/12 10:11:34;;;;;;;10.70;7.97;;;;;;;33.49;79.57;100034.66;5117821;28;20469;-78
2023/09/12 10:14:03;;;;;;;9.73;7.07;;;;;;;33.49;81.04;100037.63;5117541;28;20058;-77
2023/09/12 10:16:45;;;;;;;13.93;8.65;;;;;;;33.57;79.86;100023.25;5117909;28;20088;-78
2023/09/12 10:19:10;;;;;;;10.10;8.68;;;;;;;33.68;79.16;100030.44;5117569;28;20031;-77
2023/09/12 10:21:35;;;;;;;8.68;7.78;;;;;;;33.57;76.99;100026.19;5117525;28;20023;-80
2023/09/12 10:24:03;;;;;;;9.68;8.00;;;;;;;33.58;78.58;100035.84;5117602;28;20081;-80
2023/09/12 10:26:31;;;;;;;8.23;7.40;;;;;;;33.53;76.54;100028.94;5117426;28;20063;-81
2023/09/12 10:29:00;;;;;;;8.73;7.90;;;;;;;33.34;76.88;100011.66;5116136;28;20048;-79
2023/09/12 10:31:26;;;;;;;8.98;7.90;;;;;;;33.28;75.65;100023.19;5117635;28;20391;-80
2023/09/12 10:33:53;;;;;;;9.98;7.88;;;;;;;33.07;74.90;100024.34;5117353;28;20393;-79
2023/09/12 10:36:19;;;;;;;12.90;7.80;;;;;;;32.94;67.31;100019.19;5115948;28;20023;-78
2023/09/12 10:38:47;;;;;;;9.80;5.90;;;;;;;32.82;60.62;100016.38;5099339;28;20035;-80
2023/09/12 10:41:14;;;;;;;7.03;6.40;;;;;;;32.66;61.68;100006.59;5115860;28;20425;-79
2023/09/12 10:43:41;;;;;;;10.02;6.68;;;;;;;32.71;63.12;100011.31;5113695;28;20035;-81
2023/09/12 10:46:08;;;;;;;7.68;6.72;;;;;;;32.58;64.18;100009.88;5117072;28;20032;-79
2023/09/12 10:48:35;;;;;;;8.50;7.22;;;;;;;32.47;67.70;100018.88;5115942;28;20028;-79
2023/09/12 10:51:03;;;;;;;11.07;7.35;;;;;;;32.32;64.77;100022.47;5117072;28;20026;-78
2023/09/12 10:53:31;;;;;;;9.38;7.50;;;;;;;32.14;66.42;100016.28;5117300;28;20055;-79
2023/09/12 10:56:09;;;;;;;10.15;6.80;;;;;;;32.13;68.52;100014.75;5116414;28;20039;-80
2023/09/12 10:59:06;;;;;;;9.05;6.65;;;;;;;32.21;63.74;100013.03;5122978;28;20027;-79
2023/09/12 11:01:32;;;;;;;7.85;6.68;;;;;;;31.86;61.68;99962.22;5116621;28;20042;-84
2023/09/12 11:04:27;;;;;;;7.43;6.60;;;;;;;31.94;64.82;99976.72;5119433;28;20023;-77
2023/09/12 11:06:54;;;;;;;10.13;6.82;;;;;;;31.99;65.09;100002.91;5117354;28;20096;-78
2023/09/12 11:09:31;;;;;;;7.55;6.40;;;;;;;31.90;67.47;99997.91;5116596;28;20031;-79